EZY335 LIRN-LIMJ
Flight info
| Callsign | EZY335 |
|---|---|
| Flight time | 0h 51m |
| Altitude | 32000 |
| Route | VEXUV8G/24 VEXUV DCT PNZ DCT LUNAK DCT RAVAL DCT ELB DCT NORNI DCT BETEN M729 IDONA |
| Aircraft | A320/M-SDE3FGHIRWY/LB1 |
Departure
| Time | 2026-04-24 15:51 |
|---|---|
| Airport | Naples International Airport (LIRN) |
Arrival
| Time | 2026-04-24 16:42 |
|---|---|
| Airport | Genoa Cristoforo Colombo Airport (LIMJ) |
| Time | Latitude | Longitude | Altitude | Speed | Heading |
|---|---|---|---|---|---|
| 2026-04-24 15:19 | 40.88144 | 14.28612 | 287 ft | 0 kts | 328° |
| 2026-04-24 15:40 | 40.88135 | 14.28619 | 282 ft | 4 kts | 328° |
| 2026-04-24 15:41 | 40.88112 | 14.28637 | 287 ft | 4 kts | 328° |
| 2026-04-24 15:41 | 40.88094 | 14.28653 | 285 ft | 4 kts | 309° |
| 2026-04-24 15:41 | 40.88089 | 14.28660 | 283 ft | 0 kts | 288° |
| 2026-04-24 15:41 | 40.88088 | 14.28666 | 291 ft | 1 kts | 279° |
| 2026-04-24 15:42 | 40.88087 | 14.28677 | 290 ft | 2 kts | 14° |
| 2026-04-24 15:42 | 40.88079 | 14.28673 | 287 ft | 4 kts | 38° |
| 2026-04-24 15:42 | 40.88084 | 14.28678 | 286 ft | 7 kts | 39° |
| 2026-04-24 15:42 | 40.88095 | 14.28694 | 281 ft | 0 kts | 50° |
| 2026-04-24 15:43 | 40.88103 | 14.28706 | 281 ft | 7 kts | 51° |
| 2026-04-24 15:43 | 40.88143 | 14.28776 | 279 ft | 10 kts | 52° |
| 2026-04-24 15:44 | 40.88187 | 14.28852 | 277 ft | 11 kts | 52° |
| 2026-04-24 15:44 | 40.88234 | 14.28934 | 275 ft | 11 kts | 53° |
| 2026-04-24 15:44 | 40.88284 | 14.29020 | 273 ft | 12 kts | 53° |
| 2026-04-24 15:44 | 40.88336 | 14.29111 | 271 ft | 13 kts | 52° |
| 2026-04-24 15:45 | 40.88391 | 14.29205 | 268 ft | 13 kts | 52° |
| 2026-04-24 15:45 | 40.88449 | 14.29305 | 266 ft | 14 kts | 52° |
| 2026-04-24 15:45 | 40.88509 | 14.29408 | 263 ft | 14 kts | 53° |
| 2026-04-24 15:45 | 40.88571 | 14.29516 | 260 ft | 15 kts | 53° |
| 2026-04-24 15:46 | 40.88636 | 14.29629 | 257 ft | 16 kts | 52° |
| 2026-04-24 15:46 | 40.88705 | 14.29748 | 253 ft | 17 kts | 52° |
| 2026-04-24 15:46 | 40.88777 | 14.29872 | 249 ft | 17 kts | 52° |
| 2026-04-24 15:46 | 40.88853 | 14.30003 | 245 ft | 19 kts | 52° |
| 2026-04-24 15:47 | 40.88932 | 14.30140 | 240 ft | 14 kts | 52° |
| 2026-04-24 15:47 | 40.88980 | 14.30175 | 238 ft | 1 kts | 348° |
| 2026-04-24 15:47 | 40.88992 | 14.30171 | 238 ft | 4 kts | 346° |
| 2026-04-24 15:47 | 40.89007 | 14.30160 | 238 ft | 4 kts | 329° |
| 2026-04-24 15:48 | 40.89015 | 14.30153 | 238 ft | 6 kts | 328° |
| 2026-04-24 15:48 | 40.89053 | 14.30122 | 238 ft | 13 kts | 328° |
| 2026-04-24 15:48 | 40.89050 | 14.30023 | 240 ft | 11 kts | 238° |
| 2026-04-24 15:48 | 40.89035 | 14.29991 | 241 ft | 0 kts | 238° |
| 2026-04-24 15:50 | 40.88967 | 14.29844 | 246 ft | 54 kts | 238° |
| 2026-04-24 15:50 | 40.88654 | 14.29186 | 265 ft | 115 kts | 238° |
| 2026-04-24 15:50 | 40.88142 | 14.28107 | 402 ft | 153 kts | 241° |
| 2026-04-24 15:51 | 40.87496 | 14.26948 | 1065 ft | 158 kts | 230° |
| 2026-04-24 15:51 | 40.86457 | 14.26336 | 1603 ft | 177 kts | 181° |
| 2026-04-24 15:51 | 40.85154 | 14.26518 | 2009 ft | 196 kts | 175° |
| 2026-04-24 15:51 | 40.83778 | 14.26762 | 2598 ft | 201 kts | 173° |
| 2026-04-24 15:52 | 40.82390 | 14.27001 | 3228 ft | 202 kts | 172° |
| 2026-04-24 15:52 | 40.80990 | 14.27221 | 3815 ft | 205 kts | 173° |
| 2026-04-24 15:52 | 40.79522 | 14.26942 | 4069 ft | 229 kts | 205° |
| 2026-04-24 15:52 | 40.78325 | 14.25451 | 4347 ft | 253 kts | 245° |
| 2026-04-24 15:53 | 40.78023 | 14.23116 | 4746 ft | 269 kts | 283° |
| 2026-04-24 15:53 | 40.78795 | 14.20880 | 5425 ft | 272 kts | 309° |
| 2026-04-24 15:53 | 40.80025 | 14.18976 | 6302 ft | 273 kts | 317° |
| 2026-04-24 15:53 | 40.81388 | 14.17223 | 7204 ft | 275 kts | 320° |
| 2026-04-24 15:54 | 40.82797 | 14.15484 | 8042 ft | 279 kts | 320° |
| 2026-04-24 15:54 | 40.84199 | 14.13727 | 8888 ft | 283 kts | 319° |
| 2026-04-24 15:54 | 40.85613 | 14.11897 | 9728 ft | 287 kts | 318° |
| 2026-04-24 15:54 | 40.87029 | 14.10011 | 10455 ft | 294 kts | 317° |
| 2026-04-24 15:55 | 40.88531 | 14.07978 | 10717 ft | 317 kts | 316° |
| 2026-04-24 15:55 | 40.90077 | 14.05850 | 11191 ft | 330 kts | 316° |
| 2026-04-24 15:55 | 40.91694 | 14.03600 | 11922 ft | 335 kts | 315° |
| 2026-04-24 15:55 | 40.93301 | 14.01352 | 12693 ft | 337 kts | 316° |
| 2026-04-24 15:56 | 40.94918 | 13.99091 | 13460 ft | 339 kts | 315° |
| 2026-04-24 15:56 | 40.96544 | 13.96821 | 14170 ft | 342 kts | 315° |
| 2026-04-24 15:56 | 40.98189 | 13.94525 | 14805 ft | 345 kts | 315° |
| 2026-04-24 15:56 | 40.99850 | 13.92209 | 15414 ft | 348 kts | 315° |
| 2026-04-24 15:57 | 41.01515 | 13.89886 | 16027 ft | 352 kts | 315° |
| 2026-04-24 15:57 | 41.03203 | 13.87525 | 16633 ft | 355 kts | 315° |
| 2026-04-24 15:57 | 41.04907 | 13.85140 | 17248 ft | 359 kts | 315° |
| 2026-04-24 15:57 | 41.06634 | 13.82726 | 17840 ft | 362 kts | 315° |
| 2026-04-24 15:58 | 41.08378 | 13.80292 | 18418 ft | 366 kts | 315° |
| 2026-04-24 15:58 | 41.10142 | 13.77830 | 18913 ft | 370 kts | 315° |
| 2026-04-24 15:58 | 41.11922 | 13.75340 | 19389 ft | 374 kts | 315° |
| 2026-04-24 15:58 | 41.13719 | 13.72820 | 19882 ft | 378 kts | 315° |
| 2026-04-24 15:59 | 41.15532 | 13.70276 | 20369 ft | 381 kts | 315° |
| 2026-04-24 15:59 | 41.17359 | 13.67709 | 20855 ft | 385 kts | 315° |
| 2026-04-24 15:59 | 41.19204 | 13.65116 | 21323 ft | 388 kts | 315° |
| 2026-04-24 15:59 | 41.21067 | 13.62494 | 21791 ft | 392 kts | 315° |
| 2026-04-24 16:00 | 41.22943 | 13.59852 | 22248 ft | 395 kts | 315° |
| 2026-04-24 16:00 | 41.24836 | 13.57184 | 22734 ft | 398 kts | 315° |
| 2026-04-24 16:00 | 41.26739 | 13.54495 | 23196 ft | 401 kts | 315° |
| 2026-04-24 16:00 | 41.28658 | 13.51780 | 23644 ft | 405 kts | 315° |
| 2026-04-24 16:01 | 41.30593 | 13.49041 | 24047 ft | 407 kts | 315° |
| 2026-04-24 16:01 | 41.32539 | 13.46287 | 24444 ft | 410 kts | 315° |
| 2026-04-24 16:01 | 41.34495 | 13.43517 | 24847 ft | 412 kts | 315° |
| 2026-04-24 16:01 | 41.36463 | 13.40727 | 25231 ft | 414 kts | 315° |
| 2026-04-24 16:02 | 41.38434 | 13.37931 | 25616 ft | 416 kts | 315° |
| 2026-04-24 16:02 | 41.40418 | 13.35110 | 25980 ft | 418 kts | 315° |
| 2026-04-24 16:02 | 41.42412 | 13.32274 | 26372 ft | 420 kts | 315° |
| 2026-04-24 16:02 | 41.44418 | 13.29421 | 26729 ft | 422 kts | 315° |
| 2026-04-24 16:03 | 41.46429 | 13.26558 | 27087 ft | 425 kts | 315° |
| 2026-04-24 16:03 | 41.48439 | 13.23692 | 27429 ft | 427 kts | 315° |
| 2026-04-24 16:03 | 41.50485 | 13.20769 | 27780 ft | 429 kts | 315° |
| 2026-04-24 16:03 | 41.52524 | 13.17852 | 28122 ft | 431 kts | 315° |
| 2026-04-24 16:04 | 41.54576 | 13.14919 | 28460 ft | 434 kts | 316° |
| 2026-04-24 16:04 | 41.56641 | 13.11964 | 28804 ft | 436 kts | 315° |
| 2026-04-24 16:04 | 41.58712 | 13.08992 | 29154 ft | 438 kts | 315° |
| 2026-04-24 16:04 | 41.60794 | 13.06004 | 29671 ft | 440 kts | 316° |
| 2026-04-24 16:05 | 41.64992 | 12.99969 | 30132 ft | 445 kts | 316° |
| 2026-04-24 16:05 | 41.67102 | 12.96934 | 30402 ft | 447 kts | 316° |
| 2026-04-24 16:06 | 41.71346 | 12.90826 | 30878 ft | 450 kts | 316° |
| 2026-04-24 16:06 | 41.73484 | 12.87743 | 31122 ft | 452 kts | 316° |
| 2026-04-24 16:06 | 41.77757 | 12.81561 | 31812 ft | 451 kts | 316° |
| 2026-04-24 16:07 | 41.79878 | 12.78482 | 32060 ft | 450 kts | 316° |
| 2026-04-24 16:07 | 41.86215 | 12.69292 | 32116 ft | 468 kts | 316° |
| 2026-04-24 16:08 | 41.92928 | 12.59511 | 32110 ft | 478 kts | 316° |
| 2026-04-24 16:09 | 41.99672 | 12.49653 | 32112 ft | 478 kts | 316° |
| 2026-04-24 16:09 | 42.04175 | 12.43052 | 32108 ft | 478 kts | 316° |
| 2026-04-24 16:11 | 42.15278 | 12.26729 | 32157 ft | 479 kts | 316° |
| 2026-04-24 16:11 | 42.19770 | 12.20103 | 32136 ft | 479 kts | 315° |
| 2026-04-24 16:12 | 42.26506 | 12.10130 | 32101 ft | 479 kts | 315° |
| 2026-04-24 16:13 | 42.33234 | 12.00132 | 32112 ft | 480 kts | 315° |
| 2026-04-24 16:14 | 42.42200 | 11.86771 | 32111 ft | 480 kts | 315° |
| 2026-04-24 16:14 | 42.48916 | 11.76705 | 32114 ft | 480 kts | 315° |
| 2026-04-24 16:15 | 42.55622 | 11.66623 | 32110 ft | 480 kts | 315° |
| 2026-04-24 16:16 | 42.62359 | 11.56462 | 32101 ft | 481 kts | 315° |
| 2026-04-24 16:17 | 42.73541 | 11.39510 | 32103 ft | 481 kts | 315° |
| 2026-04-24 16:18 | 42.82455 | 11.25945 | 32097 ft | 481 kts | 315° |
| 2026-04-24 16:19 | 42.89156 | 11.15671 | 32100 ft | 481 kts | 315° |
| 2026-04-24 16:20 | 42.95836 | 11.05442 | 32107 ft | 481 kts | 315° |
| 2026-04-24 16:20 | 43.01781 | 10.96284 | 32103 ft | 482 kts | 315° |
| 2026-04-24 16:21 | 43.08437 | 10.85994 | 32118 ft | 482 kts | 315° |
| 2026-04-24 16:22 | 43.12887 | 10.79106 | 32118 ft | 482 kts | 314° |
| 2026-04-24 16:22 | 43.19535 | 10.68769 | 32124 ft | 479 kts | 314° |
| 2026-04-24 16:23 | 43.21692 | 10.65402 | 32136 ft | 461 kts | 314° |
| 2026-04-24 16:23 | 43.23777 | 10.62140 | 32026 ft | 449 kts | 314° |
| 2026-04-24 16:23 | 43.25815 | 10.58948 | 31620 ft | 441 kts | 315° |
| 2026-04-24 16:24 | 43.29846 | 10.52649 | 30648 ft | 432 kts | 315° |
| 2026-04-24 16:24 | 43.31819 | 10.49563 | 30135 ft | 428 kts | 314° |
| 2026-04-24 16:24 | 43.33774 | 10.46504 | 29557 ft | 425 kts | 314° |
| 2026-04-24 16:24 | 43.35714 | 10.43460 | 28998 ft | 421 kts | 314° |
| 2026-04-24 16:25 | 43.37636 | 10.40441 | 28446 ft | 418 kts | 314° |
| 2026-04-24 16:25 | 43.39537 | 10.37446 | 27913 ft | 414 kts | 314° |
| 2026-04-24 16:25 | 43.41422 | 10.34474 | 27378 ft | 411 kts | 314° |
| 2026-04-24 16:26 | 43.45265 | 10.28419 | 26145 ft | 439 kts | 314° |
| 2026-04-24 16:26 | 43.47335 | 10.25167 | 25614 ft | 463 kts | 314° |
| 2026-04-24 16:26 | 43.51631 | 10.18387 | 24431 ft | 470 kts | 314° |
| 2026-04-24 16:27 | 43.53973 | 10.15249 | 23228 ft | 471 kts | 320° |
| 2026-04-24 16:27 | 43.56438 | 10.12169 | 22319 ft | 468 kts | 320° |
| 2026-04-24 16:27 | 43.58852 | 10.09186 | 21806 ft | 464 kts | 320° |
| 2026-04-24 16:27 | 43.61246 | 10.06242 | 21234 ft | 459 kts | 320° |
| 2026-04-24 16:28 | 43.63616 | 10.03322 | 20670 ft | 455 kts | 320° |
| 2026-04-24 16:28 | 43.65970 | 10.00409 | 20111 ft | 451 kts | 320° |
| 2026-04-24 16:28 | 43.70595 | 9.94647 | 19005 ft | 444 kts | 320° |
| 2026-04-24 16:29 | 43.72868 | 9.91798 | 18483 ft | 440 kts | 319° |
| 2026-04-24 16:29 | 43.75110 | 9.88983 | 17897 ft | 437 kts | 319° |
| 2026-04-24 16:29 | 43.79628 | 9.83329 | 16850 ft | 430 kts | 320° |
| 2026-04-24 16:30 | 43.84033 | 9.77810 | 15847 ft | 424 kts | 319° |
| 2026-04-24 16:30 | 43.86176 | 9.75118 | 15361 ft | 421 kts | 319° |
| 2026-04-24 16:30 | 43.88338 | 9.72398 | 14855 ft | 418 kts | 319° |
| 2026-04-24 16:31 | 43.90507 | 9.69664 | 14368 ft | 415 kts | 319° |
| 2026-04-24 16:31 | 43.92638 | 9.66974 | 13857 ft | 413 kts | 319° |
| 2026-04-24 16:31 | 43.94746 | 9.64311 | 13358 ft | 410 kts | 319° |
| 2026-04-24 16:31 | 43.96849 | 9.61654 | 12869 ft | 407 kts | 319° |
| 2026-04-24 16:32 | 43.98238 | 9.59898 | 12542 ft | 405 kts | 319° |
| 2026-04-24 16:32 | 44.01008 | 9.56392 | 11887 ft | 401 kts | 319° |
| 2026-04-24 16:32 | 44.03084 | 9.53759 | 11377 ft | 398 kts | 319° |
| 2026-04-24 16:32 | 44.05129 | 9.51165 | 10869 ft | 396 kts | 319° |
| 2026-04-24 16:33 | 44.07154 | 9.48598 | 10369 ft | 393 kts | 319° |
| 2026-04-24 16:33 | 44.08801 | 9.46509 | 10065 ft | 391 kts | 319° |
| 2026-04-24 16:33 | 44.10808 | 9.43954 | 9955 ft | 391 kts | 319° |
| 2026-04-24 16:33 | 44.12798 | 9.41413 | 9783 ft | 390 kts | 319° |
| 2026-04-24 16:34 | 44.14776 | 9.38906 | 9612 ft | 389 kts | 320° |
| 2026-04-24 16:34 | 44.16855 | 9.36501 | 9136 ft | 387 kts | 322° |
| 2026-04-24 16:34 | 44.18968 | 9.34216 | 8609 ft | 382 kts | 324° |
| 2026-04-24 16:34 | 44.21092 | 9.32013 | 8112 ft | 379 kts | 324° |
| 2026-04-24 16:35 | 44.23216 | 9.29841 | 7603 ft | 377 kts | 324° |
| 2026-04-24 16:35 | 44.25312 | 9.27690 | 7095 ft | 371 kts | 324° |
| 2026-04-24 16:35 | 44.27327 | 9.25599 | 6528 ft | 350 kts | 324° |
| 2026-04-24 16:35 | 44.29193 | 9.23640 | 6064 ft | 326 kts | 323° |
| 2026-04-24 16:36 | 44.30947 | 9.21787 | 5638 ft | 306 kts | 323° |
| 2026-04-24 16:36 | 44.32565 | 9.20006 | 5243 ft | 287 kts | 315° |
| 2026-04-24 16:36 | 44.33759 | 9.17893 | 4901 ft | 268 kts | 298° |
| 2026-04-24 16:36 | 44.34425 | 9.15616 | 4554 ft | 240 kts | 285° |
| 2026-04-24 16:37 | 44.34905 | 9.13488 | 4238 ft | 219 kts | 287° |
| 2026-04-24 16:37 | 44.35342 | 9.11535 | 3954 ft | 201 kts | 286° |
| 2026-04-24 16:37 | 44.35609 | 9.10319 | 3776 ft | 187 kts | 286° |
| 2026-04-24 16:37 | 44.36074 | 9.08180 | 3449 ft | 162 kts | 285° |
| 2026-04-24 16:38 | 44.36388 | 9.06735 | 3213 ft | 149 kts | 286° |
| 2026-04-24 16:38 | 44.36684 | 9.05370 | 3014 ft | 145 kts | 285° |
| 2026-04-24 16:38 | 44.36977 | 9.04017 | 2813 ft | 144 kts | 285° |
| 2026-04-24 16:38 | 44.37265 | 9.02683 | 2610 ft | 144 kts | 285° |
| 2026-04-24 16:39 | 44.37555 | 9.01348 | 2407 ft | 144 kts | 285° |
| 2026-04-24 16:39 | 44.37842 | 9.00017 | 2201 ft | 143 kts | 285° |
| 2026-04-24 16:39 | 44.38132 | 8.98678 | 1995 ft | 144 kts | 285° |
| 2026-04-24 16:39 | 44.38421 | 8.97340 | 1802 ft | 144 kts | 285° |
| 2026-04-24 16:40 | 44.38711 | 8.95996 | 1605 ft | 144 kts | 285° |
| 2026-04-24 16:40 | 44.39001 | 8.94651 | 1402 ft | 145 kts | 285° |
| 2026-04-24 16:40 | 44.39292 | 8.93303 | 1203 ft | 146 kts | 284° |
| 2026-04-24 16:40 | 44.39587 | 8.91946 | 1012 ft | 146 kts | 285° |
| 2026-04-24 16:41 | 44.39907 | 8.90616 | 720 ft | 146 kts | 286° |
| 2026-04-24 16:41 | 44.40163 | 8.89517 | 535 ft | 144 kts | 285° |
| 2026-04-24 16:41 | 44.40429 | 8.88171 | 372 ft | 142 kts | 282° |
| 2026-04-24 16:41 | 44.40676 | 8.86832 | 183 ft | 141 kts | 284° |
| 2026-04-24 16:42 | 44.40934 | 8.85509 | 35 ft | 140 kts | 282° |
| 2026-04-24 16:42 | 44.41166 | 8.84323 | 21 ft | 104 kts | 284° |
| 2026-04-24 16:42 | 44.41312 | 8.83582 | 20 ft | 54 kts | 285° |
| 2026-04-24 16:42 | 44.41414 | 8.83166 | 21 ft | 31 kts | 312° |
| 2026-04-24 16:43 | 44.41527 | 8.83126 | 21 ft | 15 kts | 69° |
| 2026-04-24 16:43 | 44.41527 | 8.83274 | 21 ft | 16 kts | 106° |
| 2026-04-24 16:43 | 44.41494 | 8.83439 | 20 ft | 19 kts | 106° |
| 2026-04-24 16:43 | 44.41458 | 8.83627 | 20 ft | 21 kts | 103° |
| 2026-04-24 16:44 | 44.41417 | 8.83835 | 20 ft | 23 kts | 105° |
| 2026-04-24 16:44 | 44.41372 | 8.84063 | 20 ft | 25 kts | 105° |
| 2026-04-24 16:44 | 44.41323 | 8.84311 | 21 ft | 27 kts | 105° |
| 2026-04-24 16:44 | 44.41336 | 8.84436 | 20 ft | 8 kts | 44° |
| 2026-04-24 16:45 | 44.41366 | 8.84492 | 20 ft | 7 kts | 53° |
| 2026-04-24 16:45 | 44.41405 | 8.84564 | 20 ft | 12 kts | 53° |
| 2026-04-24 16:45 | 44.41465 | 8.84675 | 20 ft | 17 kts | 53° |
| 2026-04-24 16:45 | 44.41543 | 8.84819 | 20 ft | 20 kts | 52° |
| 2026-04-24 16:46 | 44.41547 | 8.84911 | 20 ft | 3 kts | 106° |
| 2026-04-24 16:46 | 44.41543 | 8.84932 | 23 ft | 2 kts | 105° |
| 2026-04-24 16:46 | 44.41540 | 8.84945 | 21 ft | 1 kts | 105° |
| 2026-04-24 16:46 | 44.41539 | 8.84950 | 22 ft | 0 kts | 105° |
| 2026-04-24 16:47 | 44.41538 | 8.84957 | 22 ft | 0 kts | 105° |
| 2026-04-24 16:47 | 44.41538 | 8.84958 | 22 ft | 0 kts | 105° |